sensor_id;sensor_type;location;lat;lon;timestamp;pressure;altitude;pressure_sealevel;temperature;humidity
54248;BME280;40161;39.768;2.722;2023-06-14T00:01:50;100522.47;;;22.26;100.00
54248;BME280;40161;39.768;2.722;2023-06-14T00:04:15;100519.59;;;22.17;100.00
54248;BME280;40161;39.768;2.722;2023-06-14T00:06:46;100510.88;;;22.15;100.00
54248;BME280;40161;39.768;2.722;2023-06-14T00:09:12;100514.78;;;22.17;100.00
54248;BME280;40161;39.768;2.722;2023-06-14T00:11:43;100506.72;;;22.19;100.00
54248;BME280;40161;39.768;2.722;2023-06-14T00:14:09;100515.09;;;22.19;100.00
54248;BME280;40161;39.768;2.722;2023-06-14T00:16:34;100523.06;;;22.21;100.00
54248;BME280;40161;39.768;2.722;2023-06-14T00:19:01;100510.75;;;22.18;100.00
54248;BME280;40161;39.768;2.722;2023-06-14T00:21:29;100519.03;;;22.22;100.00
54248;BME280;40161;39.768;2.722;2023-06-14T00:23:55;100518.25;;;22.21;100.00
54248;BME280;40161;39.768;2.722;2023-06-14T00:26:21;100504.84;;;22.16;100.00
54248;BME280;40161;39.768;2.722;2023-06-14T00:28:46;100501.13;;;22.19;100.00
54248;BME280;40161;39.768;2.722;2023-06-14T00:31:12;100500.34;;;22.19;100.00
54248;BME280;40161;39.768;2.722;2023-06-14T00:33:37;100507.19;;;22.18;100.00
54248;BME280;40161;39.768;2.722;2023-06-14T00:36:03;100500.91;;;22.14;100.00
54248;BME280;40161;39.768;2.722;2023-06-14T00:38:29;100493.44;;;22.11;100.00
54248;BME280;40161;39.768;2.722;2023-06-14T00:40:54;100496.56;;;22.13;100.00
54248;BME280;40161;39.768;2.722;2023-06-14T00:43:20;100487.38;;;22.12;100.00
54248;BME280;40161;39.768;2.722;2023-06-14T00:45:45;100467.41;;;22.01;100.00
54248;BME280;40161;39.768;2.722;2023-06-14T00:48:13;100484.50;;;22.16;100.00
54248;BME280;40161;39.768;2.722;2023-06-14T00:50:39;100476.13;;;22.03;100.00
54248;BME280;40161;39.768;2.722;2023-06-14T00:53:06;100469.31;;;21.91;100.00
54248;BME280;40161;39.768;2.722;2023-06-14T00:55:31;100467.78;;;21.77;100.00
54248;BME280;40161;39.768;2.722;2023-06-14T00:57:58;100472.81;;;21.83;100.00
54248;BME280;40161;39.768;2.722;2023-06-14T01:00:24;100469.69;;;21.68;100.00
54248;BME280;40161;39.768;2.722;2023-06-14T01:02:49;100475.50;;;21.61;100.00
54248;BME280;40161;39.768;2.722;2023-06-14T01:05:16;100483.00;;;21.64;100.00
54248;BME280;40161;39.768;2.722;2023-06-14T01:13:27;100479.56;;;21.34;100.00
54248;BME280;40161;39.768;2.722;2023-06-14T01:15:55;100470.94;;;21.28;100.00
54248;BME280;40161;39.768;2.722;2023-06-14T01:18:22;100484.25;;;21.50;100.00
54248;BME280;40161;39.768;2.722;2023-06-14T01:20:50;100470.94;;;21.67;100.00
54248;BME280;40161;39.768;2.722;2023-06-14T01:23:19;100472.59;;;21.64;100.00
54248;BME280;40161;39.768;2.722;2023-06-14T01:25:46;100481.91;;;21.48;100.00
54248;BME280;40161;39.768;2.722;2023-06-14T01:28:13;100474.75;;;21.35;100.00
54248;BME280;40161;39.768;2.722;2023-06-14T01:30:44;100478.69;;;21.37;100.00
54248;BME280;40161;39.768;2.722;2023-06-14T01:33:21;100478.31;;;21.35;100.00
54248;BME280;40161;39.768;2.722;2023-06-14T01:35:50;100462.19;;;21.26;100.00
54248;BME280;40161;39.768;2.722;2023-06-14T01:38:20;100472.16;;;21.27;100.00
54248;BME280;40161;39.768;2.722;2023-06-14T01:40:47;100457.19;;;21.21;100.00
54248;BME280;40161;39.768;2.722;2023-06-14T01:43:14;100477.38;;;21.13;100.00
54248;BME280;40161;39.768;2.722;2023-06-14T01:45:42;100478.19;;;21.13;100.00
54248;BME280;40161;39.768;2.722;2023-06-14T01:48:08;100473.13;;;21.08;100.00
54248;BME280;40161;39.768;2.722;2023-06-14T01:50:33;100470.47;;;21.04;100.00
54248;BME280;40161;39.768;2.722;2023-06-14T01:52:59;100455.28;;;20.93;100.00
54248;BME280;40161;39.768;2.722;2023-06-14T01:55:25;100462.09;;;21.04;100.00
54248;BME280;40161;39.768;2.722;2023-06-14T01:57:52;100476.31;;;21.36;100.00
54248;BME280;40161;39.768;2.722;2023-06-14T02:00:18;100470.50;;;21.43;100.00
54248;BME280;40161;39.768;2.722;2023-06-14T02:02:44;100475.78;;;21.41;100.00
54248;BME280;40161;39.768;2.722;2023-06-14T02:05:10;100479.06;;;21.23;100.00
54248;BME280;40161;39.768;2.722;2023-06-14T02:07:36;100472.34;;;21.07;100.00
54248;BME280;40161;39.768;2.722;2023-06-14T02:10:02;100468.44;;;21.05;100.00
54248;BME280;40161;39.768;2.722;2023-06-14T02:12:28;100478.19;;;21.13;100.00
54248;BME280;40161;39.768;2.722;2023-06-14T02:14:53;100481.47;;;21.37;100.00
54248;BME280;40161;39.768;2.722;2023-06-14T02:17:19;100462.31;;;21.23;100.00
54248;BME280;40161;39.768;2.722;2023-06-14T02:19:45;100480.50;;;21.15;100.00
54248;BME280;40161;39.768;2.722;2023-06-14T02:22:11;100492.28;;;20.80;100.00
54248;BME280;40161;39.768;2.722;2023-06-14T02:24:36;100491.38;;;20.83;100.00
54248;BME280;40161;39.768;2.722;2023-06-14T02:27:03;100473.00;;;20.86;100.00
54248;BME280;40161;39.768;2.722;2023-06-14T02:29:29;100485.19;;;20.92;100.00
54248;BME280;40161;39.768;2.722;2023-06-14T02:31:54;100467.13;;;20.68;100.00
54248;BME280;40161;39.768;2.722;2023-06-14T02:34:20;100484.03;;;20.90;100.00
54248;BME280;40161;39.768;2.722;2023-06-14T02:36:47;100490.94;;;20.85;100.00
54248;BME280;40161;39.768;2.722;2023-06-14T02:39:13;100486.44;;;20.75;100.00
54248;BME280;40161;39.768;2.722;2023-06-14T02:41:39;100494.13;;;20.71;100.00
54248;BME280;40161;39.768;2.722;2023-06-14T02:44:05;100488.22;;;20.69;100.00
54248;BME280;40161;39.768;2.722;2023-06-14T02:46:32;100486.78;;;20.77;100.00
54248;BME280;40161;39.768;2.722;2023-06-14T02:48:57;100486.94;;;20.86;100.00
54248;BME280;40161;39.768;2.722;2023-06-14T02:51:23;100484.63;;;20.97;100.00
54248;BME280;40161;39.768;2.722;2023-06-14T02:53:48;100486.75;;;21.06;100.00
54248;BME280;40161;39.768;2.722;2023-06-14T02:56:14;100494.53;;;20.98;100.00
54248;BME280;40161;39.768;2.722;2023-06-14T02:58:42;100503.56;;;20.90;100.00
54248;BME280;40161;39.768;2.722;2023-06-14T03:01:08;100501.31;;;20.84;100.00
54248;BME280;40161;39.768;2.722;2023-06-14T03:03:38;100498.16;;;20.70;100.00
54248;BME280;40161;39.768;2.722;2023-06-14T03:06:03;100503.63;;;20.73;100.00
54248;BME280;40161;39.768;2.722;2023-06-14T03:08:33;100480.28;;;20.54;100.00
54248;BME280;40161;39.768;2.722;2023-06-14T03:11:04;100512.78;;;20.74;100.00
54248;BME280;40161;39.768;2.722;2023-06-14T03:13:31;100504.88;;;20.72;100.00
54248;BME280;40161;39.768;2.722;2023-06-14T03:15:57;100519.72;;;20.82;100.00
54248;BME280;40161;39.768;2.722;2023-06-14T03:18:23;100509.19;;;20.73;100.00
54248;BME280;40161;39.768;2.722;2023-06-14T03:20:50;100467.53;;;20.53;100.00
54248;BME280;40161;39.768;2.722;2023-06-14T03:23:16;100516.59;;;20.80;100.00
54248;BME280;40161;39.768;2.722;2023-06-14T03:25:43;100499.97;;;20.76;100.00
54248;BME280;40161;39.768;2.722;2023-06-14T03:28:08;100509.69;;;20.84;100.00
54248;BME280;40161;39.768;2.722;2023-06-14T03:30:34;100509.16;;;21.02;100.00
54248;BME280;40161;39.768;2.722;2023-06-14T03:32:59;100505.50;;;21.05;100.00
54248;BME280;40161;39.768;2.722;2023-06-14T03:35:28;100513.53;;;21.16;100.00
54248;BME280;40161;39.768;2.722;2023-06-14T03:37:54;100501.16;;;21.17;100.00
54248;BME280;40161;39.768;2.722;2023-06-14T03:40:20;100493.44;;;21.08;100.00
54248;BME280;40161;39.768;2.722;2023-06-14T03:42:46;100508.41;;;21.15;100.00
54248;BME280;40161;39.768;2.722;2023-06-14T03:45:12;100497.91;;;21.06;100.00
54248;BME280;40161;39.768;2.722;2023-06-14T03:47:37;100496.22;;;20.96;100.00
54248;BME280;40161;39.768;2.722;2023-06-14T03:50:03;100497.31;;;20.98;100.00
54248;BME280;40161;39.768;2.722;2023-06-14T03:52:29;100510.72;;;20.91;100.00
54248;BME280;40161;39.768;2.722;2023-06-14T03:54:56;100505.28;;;20.71;100.00
54248;BME280;40161;39.768;2.722;2023-06-14T03:57:23;100514.88;;;20.70;100.00
54248;BME280;40161;39.768;2.722;2023-06-14T03:59:48;100509.56;;;20.75;100.00
54248;BME280;40161;39.768;2.722;2023-06-14T04:02:15;100481.72;;;20.59;100.00
54248;BME280;40161;39.768;2.722;2023-06-14T04:04:41;100509.56;;;20.88;100.00
54248;BME280;40161;39.768;2.722;2023-06-14T04:07:13;100508.66;;;20.78;100.00
54248;BME280;40161;39.768;2.722;2023-06-14T04:09:39;100506.78;;;20.75;100.00
54248;BME280;40161;39.768;2.722;2023-06-14T04:12:06;100523.72;;;20.81;100.00
54248;BME280;40161;39.768;2.722;2023-06-14T04:14:34;100509.88;;;20.77;100.00
54248;BME280;40161;39.768;2.722;2023-06-14T04:17:00;100509.16;;;20.90;100.00
54248;BME280;40161;39.768;2.722;2023-06-14T04:19:25;100508.59;;;20.95;100.00
54248;BME280;40161;39.768;2.722;2023-06-14T04:21:51;100504.13;;;20.97;100.00
54248;BME280;40161;39.768;2.722;2023-06-14T04:24:17;100504.50;;;20.99;100.00
54248;BME280;40161;39.768;2.722;2023-06-14T04:26:43;100509.16;;;21.02;100.00
54248;BME280;40161;39.768;2.722;2023-06-14T04:29:14;100508.28;;;21.05;100.00
54248;BME280;40161;39.768;2.722;2023-06-14T04:31:42;100498.78;;;20.90;100.00
54248;BME280;40161;39.768;2.722;2023-06-14T04:34:07;100505.16;;;21.03;100.00
54248;BME280;40161;39.768;2.722;2023-06-14T04:36:33;100498.81;;;21.03;100.00
54248;BME280;40161;39.768;2.722;2023-06-14T04:39:05;100512.41;;;21.01;100.00
54248;BME280;40161;39.768;2.722;2023-06-14T04:41:30;100509.09;;;21.06;100.00
54248;BME280;40161;39.768;2.722;2023-06-14T04:44:00;100521.78;;;21.07;100.00
54248;BME280;40161;39.768;2.722;2023-06-14T04:46:29;100523.50;;;21.17;100.00
54248;BME280;40161;39.768;2.722;2023-06-14T04:48:55;100523.50;;;21.17;100.00
54248;BME280;40161;39.768;2.722;2023-06-14T04:51:21;100522.94;;;21.22;100.00
54248;BME280;40161;39.768;2.722;2023-06-14T04:53:57;100526.19;;;21.21;100.00
54248;BME280;40161;39.768;2.722;2023-06-14T04:56:24;100528.63;;;21.06;100.00
54248;BME280;40161;39.768;2.722;2023-06-14T04:58:51;100531.41;;;21.06;100.00
54248;BME280;40161;39.768;2.722;2023-06-14T05:01:18;100536.53;;;21.07;100.00
54248;BME280;40161;39.768;2.722;2023-06-14T05:03:44;100550.16;;;21.18;100.00
54248;BME280;40161;39.768;2.722;2023-06-14T05:06:11;100553.41;;;21.17;100.00
54248;BME280;40161;39.768;2.722;2023-06-14T05:08:37;100547.72;;;21.20;100.00
54248;BME280;40161;39.768;2.722;2023-06-14T05:11:02;100553.09;;;21.27;100.00
54248;BME280;40161;39.768;2.722;2023-06-14T05:13:28;100562.66;;;21.26;100.00
54248;BME280;40161;39.768;2.722;2023-06-14T05:15:54;100548.72;;;21.26;100.00
54248;BME280;40161;39.768;2.722;2023-06-14T05:18:19;100548.81;;;21.23;100.00
54248;BME280;40161;39.768;2.722;2023-06-14T05:20:45;100558.09;;;21.20;100.00
54248;BME280;40161;39.768;2.722;2023-06-14T05:23:11;100565.31;;;21.04;100.00
54248;BME280;40161;39.768;2.722;2023-06-14T05:25:42;100537.75;;;20.77;100.00
54248;BME280;40161;39.768;2.722;2023-06-14T05:28:08;100556.69;;;20.99;100.00
54248;BME280;40161;39.768;2.722;2023-06-14T05:30:33;100568.56;;;21.16;100.00
54248;BME280;40161;39.768;2.722;2023-06-14T05:32:59;100559.66;;;21.21;100.00
54248;BME280;40161;39.768;2.722;2023-06-14T05:35:24;100553.16;;;21.11;100.00
54248;BME280;40161;39.768;2.722;2023-06-14T05:37:52;100569.38;;;21.29;100.00
54248;BME280;40161;39.768;2.722;2023-06-14T05:40:19;100564.25;;;21.27;100.00
54248;BME280;40161;39.768;2.722;2023-06-14T05:42:45;100564.16;;;21.31;100.00
54248;BME280;40161;39.768;2.722;2023-06-14T05:45:10;100555.97;;;21.24;100.00
54248;BME280;40161;39.768;2.722;2023-06-14T05:47:36;100563.28;;;21.34;100.00
54248;BME280;40161;39.768;2.722;2023-06-14T05:50:02;100569.31;;;21.45;100.00
54248;BME280;40161;39.768;2.722;2023-06-14T05:52:27;100558.50;;;21.47;100.00
54248;BME280;40161;39.768;2.722;2023-06-14T05:54:53;100562.75;;;21.52;100.00
54248;BME280;40161;39.768;2.722;2023-06-14T05:57:19;100563.31;;;21.60;100.00
54248;BME280;40161;39.768;2.722;2023-06-14T05:59:44;100562.41;;;21.63;100.00
54248;BME280;40161;39.768;2.722;2023-06-14T06:02:10;100575.81;;;21.55;100.00
54248;BME280;40161;39.768;2.722;2023-06-14T06:04:35;100583.75;;;21.56;100.00
54248;BME280;40161;39.768;2.722;2023-06-14T06:07:01;100589.66;;;21.59;100.00
54248;BME280;40161;39.768;2.722;2023-06-14T06:09:27;100578.72;;;21.64;100.00
54248;BME280;40161;39.768;2.722;2023-06-14T06:11:53;100580.28;;;21.78;100.00
54248;BME280;40161;39.768;2.722;2023-06-14T06:14:19;100580.16;;;21.81;100.00
54248;BME280;40161;39.768;2.722;2023-06-14T06:16:44;100587.09;;;21.77;100.00
54248;BME280;40161;39.768;2.722;2023-06-14T06:19:10;100568.91;;;21.72;100.00
54248;BME280;40161;39.768;2.722;2023-06-14T06:21:36;100584.44;;;21.86;100.00
54248;BME280;40161;39.768;2.722;2023-06-14T06:24:02;100589.78;;;21.93;99.88
54248;BME280;40161;39.768;2.722;2023-06-14T06:26:30;100583.19;;;22.00;100.00
54248;BME280;40161;39.768;2.722;2023-06-14T06:28:56;100583.41;;;22.05;100.00
54248;BME280;40161;39.768;2.722;2023-06-14T06:31:22;100591.22;;;22.11;100.00
54248;BME280;40161;39.768;2.722;2023-06-14T06:33:48;100583.50;;;22.02;100.00
54248;BME280;40161;39.768;2.722;2023-06-14T06:36:13;100604.75;;;22.12;100.00
54248;BME280;40161;39.768;2.722;2023-06-14T06:38:39;100604.75;;;22.12;100.00
54248;BME280;40161;39.768;2.722;2023-06-14T06:41:04;100602.53;;;22.07;100.00
54248;BME280;40161;39.768;2.722;2023-06-14T06:43:30;100605.78;;;22.18;100.00
54248;BME280;40161;39.768;2.722;2023-06-14T06:45:56;100612.25;;;22.15;100.00
54248;BME280;40161;39.768;2.722;2023-06-14T06:48:21;100606.09;;;22.08;97.21
54248;BME280;40161;39.768;2.722;2023-06-14T06:50:47;100610.47;;;22.21;97.90
54248;BME280;40161;39.768;2.722;2023-06-14T06:53:12;100613.94;;;22.25;97.60
54248;BME280;40161;39.768;2.722;2023-06-14T06:55:38;100612.91;;;22.19;94.92
54248;BME280;40161;39.768;2.722;2023-06-14T06:58:03;100621.75;;;22.31;94.27
54248;BME280;40161;39.768;2.722;2023-06-14T07:00:30;100630.91;;;22.44;94.30
54248;BME280;40161;39.768;2.722;2023-06-14T07:02:56;100632.22;;;22.52;94.25
54248;BME280;40161;39.768;2.722;2023-06-14T07:05:22;100645.31;;;22.55;91.82
54248;BME280;40161;39.768;2.722;2023-06-14T07:07:48;100641.41;;;22.52;89.01
54248;BME280;40161;39.768;2.722;2023-06-14T07:10:14;100662.41;;;22.57;86.92
54248;BME280;40161;39.768;2.722;2023-06-14T07:12:39;100653.69;;;22.55;87.22
54248;BME280;40161;39.768;2.722;2023-06-14T07:15:06;100666.34;;;22.47;85.27
54248;BME280;40161;39.768;2.722;2023-06-14T07:17:33;100666.34;;;22.47;81.82
54248;BME280;40161;39.768;2.722;2023-06-14T07:19:59;100674.72;;;22.47;81.87
54248;BME280;40161;39.768;2.722;2023-06-14T07:22:26;100665.56;;;22.46;82.28
54248;BME280;40161;39.768;2.722;2023-06-14T07:24:51;100663.75;;;22.52;83.06
54248;BME280;40161;39.768;2.722;2023-06-14T07:27:17;100671.38;;;22.52;79.87
54248;BME280;40161;39.768;2.722;2023-06-14T07:29:42;100662.75;;;22.59;78.80
54248;BME280;40161;39.768;2.722;2023-06-14T07:32:08;100656.59;;;22.64;78.63
54248;BME280;40161;39.768;2.722;2023-06-14T07:34:33;100665.06;;;22.73;77.56
54248;BME280;40161;39.768;2.722;2023-06-14T07:36:59;100666.72;;;22.84;79.17
54248;BME280;40161;39.768;2.722;2023-06-14T07:39:25;100671.97;;;22.94;79.47
54248;BME280;40161;39.768;2.722;2023-06-14T07:41:50;100670.84;;;22.92;77.96
54248;BME280;40161;39.768;2.722;2023-06-14T07:44:16;100666.25;;;22.98;78.79
54248;BME280;40161;39.768;2.722;2023-06-14T07:46:41;100671.41;;;23.00;78.27
54248;BME280;40161;39.768;2.722;2023-06-14T07:49:07;100638.66;;;22.74;74.55
54248;BME280;40161;39.768;2.722;2023-06-14T07:51:33;100674.06;;;23.03;77.26
54248;BME280;40161;39.768;2.722;2023-06-14T07:53:59;100656.19;;;22.88;76.95
54248;BME280;40161;39.768;2.722;2023-06-14T07:56:26;100671.19;;;22.94;77.27
54248;BME280;40161;39.768;2.722;2023-06-14T07:58:52;100679.78;;;23.00;79.28
54248;BME280;40161;39.768;2.722;2023-06-14T08:01:17;100678.56;;;23.01;79.70
54248;BME280;40161;39.768;2.722;2023-06-14T08:03:45;100679.59;;;22.94;78.56
54248;BME280;40161;39.768;2.722;2023-06-14T08:06:10;100678.56;;;23.01;79.67
54248;BME280;40161;39.768;2.722;2023-06-14T08:08:36;100683.63;;;22.93;80.37
54248;BME280;40161;39.768;2.722;2023-06-14T08:11:01;100690.78;;;22.94;80.26
54248;BME280;40161;39.768;2.722;2023-06-14T08:13:27;100687.97;;;22.94;81.20
54248;BME280;40161;39.768;2.722;2023-06-14T08:15:52;100683.81;;;22.98;82.75
54248;BME280;40161;39.768;2.722;2023-06-14T08:18:18;100684.28;;;22.97;81.99
54248;BME280;40161;39.768;2.722;2023-06-14T08:20:44;100694.69;;;22.96;84.32
54248;BME280;40161;39.768;2.722;2023-06-14T08:23:10;100691.66;;;22.91;85.51
54248;BME280;40161;39.768;2.722;2023-06-14T08:25:36;100688.66;;;22.85;86.00
54248;BME280;40161;39.768;2.722;2023-06-14T08:28:02;100693.78;;;22.87;87.73
54248;BME280;40161;39.768;2.722;2023-06-14T08:30:27;100696.25;;;22.85;87.10
54248;BME280;40161;39.768;2.722;2023-06-14T08:32:53;100703.84;;;22.84;87.72
54248;BME280;40161;39.768;2.722;2023-06-14T08:35:21;100694.94;;;22.77;87.76
54248;BME280;40161;39.768;2.722;2023-06-14T08:37:46;100702.66;;;22.85;88.28
54248;BME280;40161;39.768;2.722;2023-06-14T08:40:23;100697.16;;;22.94;87.45
54248;BME280;40161;39.768;2.722;2023-06-14T08:42:53;100699.91;;;23.07;85.88
54248;BME280;40161;39.768;2.722;2023-06-14T08:45:23;100698.34;;;23.06;83.69
54248;BME280;40161;39.768;2.722;2023-06-14T08:47:53;100715.56;;;23.17;81.81
54248;BME280;40161;39.768;2.722;2023-06-14T08:50:23;100700.16;;;23.00;81.05
54248;BME280;40161;39.768;2.722;2023-06-14T08:52:54;100724.50;;;23.12;81.92
54248;BME280;40161;39.768;2.722;2023-06-14T08:55:23;100742.88;;;23.13;87.33
54248;BME280;40161;39.768;2.722;2023-06-14T08:57:54;100748.50;;;23.01;91.31
54248;BME280;40161;39.768;2.722;2023-06-14T09:00:22;100751.66;;;22.77;95.87
54248;BME280;40161;39.768;2.722;2023-06-14T09:02:47;100763.53;;;22.68;98.86
54248;BME280;40161;39.768;2.722;2023-06-14T09:05:13;100748.34;;;22.44;99.22
54248;BME280;40161;39.768;2.722;2023-06-14T09:07:42;100768.66;;;22.57;100.00
54248;BME280;40161;39.768;2.722;2023-06-14T09:12:36;100772.03;;;22.39;100.00
54248;BME280;40161;39.768;2.722;2023-06-14T09:15:03;100784.13;;;22.49;100.00
54248;BME280;40161;39.768;2.722;2023-06-14T09:17:38;100780.53;;;22.36;100.00
54248;BME280;40161;39.768;2.722;2023-06-14T09:20:04;100764.09;;;22.25;100.00
54248;BME280;40161;39.768;2.722;2023-06-14T09:22:43;100782.56;;;22.48;100.00
54248;BME280;40161;39.768;2.722;2023-06-14T09:25:09;100782.66;;;22.57;100.00
54248;BME280;40161;39.768;2.722;2023-06-14T09:27:35;100787.47;;;22.69;100.00
54248;BME280;40161;39.768;2.722;2023-06-14T09:30:05;100782.19;;;22.84;100.00
54248;BME280;40161;39.768;2.722;2023-06-14T09:32:39;100786.47;;;22.76;99.64
54248;BME280;40161;39.768;2.722;2023-06-14T09:35:08;100794.16;;;22.85;95.42
54248;BME280;40161;39.768;2.722;2023-06-14T09:37:35;100786.69;;;22.82;93.07
54248;BME280;40161;39.768;2.722;2023-06-14T09:40:03;100803.47;;;22.94;92.23
54248;BME280;40161;39.768;2.722;2023-06-14T09:42:30;100804.25;;;22.95;92.61
54248;BME280;40161;39.768;2.722;2023-06-14T09:44:56;100809.63;;;22.89;89.69
54248;BME280;40161;39.768;2.722;2023-06-14T09:47:24;100784.69;;;22.82;90.62
54248;BME280;40161;39.768;2.722;2023-06-14T09:49:50;100801.47;;;22.95;93.30
54248;BME280;40161;39.768;2.722;2023-06-14T09:52:18;100803.69;;;22.87;96.55
54248;BME280;40161;39.768;2.722;2023-06-14T09:54:46;100829.63;;;22.88;99.79
54248;BME280;40161;39.768;2.722;2023-06-14T09:57:13;100820.16;;;22.85;98.54
54248;BME280;40161;39.768;2.722;2023-06-14T09:59:44;100816.47;;;22.88;100.00
54248;BME280;40161;39.768;2.722;2023-06-14T10:02:28;100832.94;;;22.99;100.00
54248;BME280;40161;39.768;2.722;2023-06-14T10:05:05;100839.06;;;23.07;100.00
54248;BME280;40161;39.768;2.722;2023-06-14T10:07:44;100831.81;;;23.09;100.00
54248;BME280;40161;39.768;2.722;2023-06-14T10:10:13;100846.56;;;23.10;99.50
54248;BME280;40161;39.768;2.722;2023-06-14T10:12:39;100845.88;;;23.18;98.48
54248;BME280;40161;39.768;2.722;2023-06-14T10:15:15;100854.72;;;23.30;98.25
54248;BME280;40161;39.768;2.722;2023-06-14T10:17:55;100852.22;;;23.32;100.00
54248;BME280;40161;39.768;2.722;2023-06-14T10:20:27;100860.75;;;23.28;94.55
54248;BME280;40161;39.768;2.722;2023-06-14T10:23:07;100844.84;;;23.38;96.93
54248;BME280;40161;39.768;2.722;2023-06-14T10:25:34;100847.50;;;23.41;93.79
54248;BME280;40161;39.768;2.722;2023-06-14T10:30:37;100834.63;;;23.44;92.29
54248;BME280;40161;39.768;2.722;2023-06-14T10:33:07;100829.94;;;23.41;88.17
54248;BME280;40161;39.768;2.722;2023-06-14T10:35:33;100821.41;;;23.44;86.75
54248;BME280;40161;39.768;2.722;2023-06-14T10:38:10;100835.22;;;23.74;88.53
54248;BME280;40161;39.768;2.722;2023-06-14T10:40:39;100829.91;;;23.88;86.67
54248;BME280;40161;39.768;2.722;2023-06-14T10:43:24;100835.81;;;23.90;83.42
54248;BME280;40161;39.768;2.722;2023-06-14T10:46:13;100840.06;;;23.95;81.46
54248;BME280;40161;39.768;2.722;2023-06-14T10:48:42;100839.00;;;23.80;80.56
54248;BME280;40161;39.768;2.722;2023-06-14T10:51:19;100816.19;;;23.68;82.47
54248;BME280;40161;39.768;2.722;2023-06-14T10:53:50;100838.06;;;23.61;80.97
54248;BME280;40161;39.768;2.722;2023-06-14T10:56:29;100828.84;;;23.60;82.00
54248;BME280;40161;39.768;2.722;2023-06-14T10:58:57;100829.75;;;23.70;82.64
54248;BME280;40161;39.768;2.722;2023-06-14T11:01:47;100840.97;;;23.92;80.73
54248;BME280;40161;39.768;2.722;2023-06-14T11:04:22;100838.09;;;24.05;81.00
54248;BME280;40161;39.768;2.722;2023-06-14T11:07:04;100830.03;;;24.07;77.69
54248;BME280;40161;39.768;2.722;2023-06-14T11:10:36;100840.56;;;24.25;74.26
54248;BME280;40161;39.768;2.722;2023-06-14T11:12:48;100806.69;;;24.10;74.56
54248;BME280;40161;39.768;2.722;2023-06-14T11:15:14;100829.06;;;24.23;73.86
54248;BME280;40161;39.768;2.722;2023-06-14T11:17:39;100836.03;;;24.40;72.60
54248;BME280;40161;39.768;2.722;2023-06-14T11:20:15;100819.84;;;24.44;73.34
54248;BME280;40161;39.768;2.722;2023-06-14T11:22:43;100839.50;;;24.53;69.56
54248;BME280;40161;39.768;2.722;2023-06-14T11:25:10;100812.75;;;24.39;68.99
54248;BME280;40161;39.768;2.722;2023-06-14T11:27:36;100838.28;;;24.54;67.46
54248;BME280;40161;39.768;2.722;2023-06-14T11:30:02;100842.00;;;24.51;67.03
54248;BME280;40161;39.768;2.722;2023-06-14T11:32:28;100834.50;;;24.48;65.68
54248;BME280;40161;39.768;2.722;2023-06-14T11:34:53;100827.38;;;24.56;66.96
54248;BME280;40161;39.768;2.722;2023-06-14T11:37:19;100830.34;;;24.62;67.51
54248;BME280;40161;39.768;2.722;2023-06-14T11:39:45;100827.78;;;24.46;67.18
54248;BME280;40161;39.768;2.722;2023-06-14T11:42:15;100819.50;;;24.42;67.01
54248;BME280;40161;39.768;2.722;2023-06-14T11:44:41;100816.13;;;24.47;67.23
54248;BME280;40161;39.768;2.722;2023-06-14T11:47:06;100836.56;;;24.57;66.34
54248;BME280;40161;39.768;2.722;2023-06-14T11:49:36;100837.03;;;24.55;65.68
54248;BME280;40161;39.768;2.722;2023-06-14T11:52:02;100837.66;;;24.59;64.88
54248;BME280;40161;39.768;2.722;2023-06-14T11:54:27;100832.66;;;24.54;65.90
54248;BME280;40161;39.768;2.722;2023-06-14T11:56:53;100831.56;;;24.52;67.82
54248;BME280;40161;39.768;2.722;2023-06-14T11:59:20;100833.13;;;24.53;67.48
54248;BME280;40161;39.768;2.722;2023-06-14T12:01:47;100817.03;;;24.44;68.68
54248;BME280;40161;39.768;2.722;2023-06-14T12:04:13;100834.41;;;24.39;67.87
54248;BME280;40161;39.768;2.722;2023-06-14T12:06:39;100850.13;;;24.58;66.91
54248;BME280;40161;39.768;2.722;2023-06-14T12:09:06;100842.84;;;24.61;66.52
54248;BME280;40161;39.768;2.722;2023-06-14T12:11:35;100843.25;;;24.50;66.57
54248;BME280;40161;39.768;2.722;2023-06-14T12:14:05;100855.69;;;24.49;67.29
54248;BME280;40161;39.768;2.722;2023-06-14T12:16:35;100846.31;;;24.43;67.18
54248;BME280;40161;39.768;2.722;2023-06-14T12:19:13;100857.59;;;24.52;67.73
54248;BME280;40161;39.768;2.722;2023-06-14T12:21:40;100847.97;;;24.62;65.66
54248;BME280;40161;39.768;2.722;2023-06-14T12:24:07;100844.59;;;24.68;65.58
54248;BME280;40161;39.768;2.722;2023-06-14T12:26:32;100844.88;;;24.70;66.57
54248;BME280;40161;39.768;2.722;2023-06-14T12:28:58;100857.06;;;24.76;66.56
54248;BME280;40161;39.768;2.722;2023-06-14T12:31:25;100858.97;;;24.79;66.10
54248;BME280;40161;39.768;2.722;2023-06-14T12:33:52;100854.41;;;24.72;64.77
54248;BME280;40161;39.768;2.722;2023-06-14T12:36:17;100847.88;;;24.75;66.27
54248;BME280;40161;39.768;2.722;2023-06-14T12:38:43;100847.97;;;24.62;65.47
54248;BME280;40161;39.768;2.722;2023-06-14T12:41:08;100861.38;;;24.58;64.82
54248;BME280;40161;39.768;2.722;2023-06-14T12:43:34;100860.47;;;24.71;65.22
54248;BME280;40161;39.768;2.722;2023-06-14T12:46:00;100870.97;;;24.79;64.32
54248;BME280;40161;39.768;2.722;2023-06-14T12:48:26;100867.09;;;24.86;65.33
54248;BME280;40161;39.768;2.722;2023-06-14T12:50:57;100878.47;;;24.82;65.76
54248;BME280;40161;39.768;2.722;2023-06-14T12:53:23;100879.84;;;24.78;65.76
54248;BME280;40161;39.768;2.722;2023-06-14T12:55:49;100880.66;;;24.87;67.00
54248;BME280;40161;39.768;2.722;2023-06-14T12:58:14;100881.31;;;24.92;67.12